sensor_id;sensor_type;location;lat;lon;timestamp;P1;durP1;ratioP1;P2;durP2;ratioP2
55720;SDS011;41626;53.098;6.168;2023-05-07T00:01:56;19.08;;;16.02;;
55720;SDS011;41626;53.098;6.168;2023-05-07T00:04:22;16.48;;;14.77;;
55720;SDS011;41626;53.098;6.168;2023-05-07T00:06:47;18.13;;;16.30;;
55720;SDS011;41626;53.098;6.168;2023-05-07T00:09:13;18.10;;;16.30;;
55720;SDS011;41626;53.098;6.168;2023-05-07T00:11:39;18.57;;;16.57;;
55720;SDS011;41626;53.098;6.168;2023-05-07T00:14:05;18.95;;;16.88;;
55720;SDS011;41626;53.098;6.168;2023-05-07T00:16:31;18.15;;;16.35;;
55720;SDS011;41626;53.098;6.168;2023-05-07T00:18:57;18.38;;;15.98;;
55720;SDS011;41626;53.098;6.168;2023-05-07T00:21:22;17.70;;;15.88;;
55720;SDS011;41626;53.098;6.168;2023-05-07T00:23:51;18.35;;;16.48;;
55720;SDS011;41626;53.098;6.168;2023-05-07T00:26:18;21.27;;;16.40;;
55720;SDS011;41626;53.098;6.168;2023-05-07T00:28:43;18.93;;;16.20;;
55720;SDS011;41626;53.098;6.168;2023-05-07T00:31:09;18.13;;;16.25;;
55720;SDS011;41626;53.098;6.168;2023-05-07T00:33:35;19.10;;;17.17;;
55720;SDS011;41626;53.098;6.168;2023-05-07T00:36:00;18.33;;;16.47;;
55720;SDS011;41626;53.098;6.168;2023-05-07T00:38:26;19.50;;;17.60;;
55720;SDS011;41626;53.098;6.168;2023-05-07T00:40:52;19.10;;;17.17;;
55720;SDS011;41626;53.098;6.168;2023-05-07T00:43:18;19.97;;;17.93;;
55720;SDS011;41626;53.098;6.168;2023-05-07T00:45:43;20.50;;;17.80;;
55720;SDS011;41626;53.098;6.168;2023-05-07T00:48:09;19.98;;;17.42;;
55720;SDS011;41626;53.098;6.168;2023-05-07T00:50:35;19.42;;;17.15;;
55720;SDS011;41626;53.098;6.168;2023-05-07T00:53:01;18.90;;;17.02;;
55720;SDS011;41626;53.098;6.168;2023-05-07T00:55:27;18.50;;;16.60;;
55720;SDS011;41626;53.098;6.168;2023-05-07T00:57:53;18.23;;;16.35;;
55720;SDS011;41626;53.098;6.168;2023-05-07T01:00:19;19.85;;;17.85;;
55720;SDS011;41626;53.098;6.168;2023-05-07T01:02:45;19.35;;;17.25;;
55720;SDS011;41626;53.098;6.168;2023-05-07T01:05:12;19.77;;;17.33;;
55720;SDS011;41626;53.098;6.168;2023-05-07T01:07:41;20.48;;;18.35;;
55720;SDS011;41626;53.098;6.168;2023-05-07T01:12:40;21.13;;;18.00;;
55720;SDS011;41626;53.098;6.168;2023-05-07T01:15:08;20.45;;;18.27;;
55720;SDS011;41626;53.098;6.168;2023-05-07T01:17:38;20.40;;;17.92;;
55720;SDS011;41626;53.098;6.168;2023-05-07T01:20:05;19.73;;;17.35;;
55720;SDS011;41626;53.098;6.168;2023-05-07T01:22:32;20.35;;;18.23;;
55720;SDS011;41626;53.098;6.168;2023-05-07T01:25:05;21.55;;;19.45;;
55720;SDS011;41626;53.098;6.168;2023-05-07T01:27:32;22.27;;;19.88;;
55720;SDS011;41626;53.098;6.168;2023-05-07T01:30:02;23.13;;;20.92;;
55720;SDS011;41626;53.098;6.168;2023-05-07T01:32:32;22.43;;;19.97;;
55720;SDS011;41626;53.098;6.168;2023-05-07T01:35:02;22.38;;;20.02;;
55720;SDS011;41626;53.098;6.168;2023-05-07T01:37:30;24.17;;;21.60;;
55720;SDS011;41626;53.098;6.168;2023-05-07T01:39:57;24.40;;;21.80;;
55720;SDS011;41626;53.098;6.168;2023-05-07T01:42:23;22.48;;;20.10;;
55720;SDS011;41626;53.098;6.168;2023-05-07T01:44:49;22.75;;;20.35;;
55720;SDS011;41626;53.098;6.168;2023-05-07T01:47:14;24.90;;;22.08;;
55720;SDS011;41626;53.098;6.168;2023-05-07T01:49:41;24.30;;;21.70;;
55720;SDS011;41626;53.098;6.168;2023-05-07T01:52:08;26.45;;;22.38;;
55720;SDS011;41626;53.098;6.168;2023-05-07T01:54:35;26.15;;;23.48;;
55720;SDS011;41626;53.098;6.168;2023-05-07T01:57:00;24.48;;;21.98;;
55720;SDS011;41626;53.098;6.168;2023-05-07T01:59:26;25.90;;;22.90;;
55720;SDS011;41626;53.098;6.168;2023-05-07T02:01:51;25.33;;;22.83;;
55720;SDS011;41626;53.098;6.168;2023-05-07T02:04:17;26.43;;;23.00;;
55720;SDS011;41626;53.098;6.168;2023-05-07T02:06:43;24.05;;;21.70;;
55720;SDS011;41626;53.098;6.168;2023-05-07T02:09:08;27.17;;;23.88;;
55720;SDS011;41626;53.098;6.168;2023-05-07T02:11:34;25.70;;;23.00;;
55720;SDS011;41626;53.098;6.168;2023-05-07T02:14:01;25.45;;;22.85;;
55720;SDS011;41626;53.098;6.168;2023-05-07T02:16:27;25.85;;;23.08;;
55720;SDS011;41626;53.098;6.168;2023-05-07T02:18:53;27.08;;;23.27;;
55720;SDS011;41626;53.098;6.168;2023-05-07T02:21:18;26.20;;;23.50;;
55720;SDS011;41626;53.098;6.168;2023-05-07T02:23:44;26.37;;;23.07;;
55720;SDS011;41626;53.098;6.168;2023-05-07T02:26:10;26.88;;;24.08;;
55720;SDS011;41626;53.098;6.168;2023-05-07T02:28:36;25.77;;;22.83;;
55720;SDS011;41626;53.098;6.168;2023-05-07T02:31:02;26.60;;;23.90;;
55720;SDS011;41626;53.098;6.168;2023-05-07T02:33:28;25.77;;;23.08;;
55720;SDS011;41626;53.098;6.168;2023-05-07T02:35:54;26.42;;;23.77;;
55720;SDS011;41626;53.098;6.168;2023-05-07T02:38:20;26.50;;;23.77;;
55720;SDS011;41626;53.098;6.168;2023-05-07T02:40:46;26.45;;;23.65;;
55720;SDS011;41626;53.098;6.168;2023-05-07T02:43:12;26.70;;;24.00;;
55720;SDS011;41626;53.098;6.168;2023-05-07T02:45:37;28.47;;;24.63;;
55720;SDS011;41626;53.098;6.168;2023-05-07T02:48:03;26.90;;;24.07;;
55720;SDS011;41626;53.098;6.168;2023-05-07T02:50:30;27.45;;;24.55;;
55720;SDS011;41626;53.098;6.168;2023-05-07T02:52:57;28.90;;;25.85;;
55720;SDS011;41626;53.098;6.168;2023-05-07T02:55:23;28.30;;;25.20;;
55720;SDS011;41626;53.098;6.168;2023-05-07T02:57:49;28.00;;;25.00;;
55720;SDS011;41626;53.098;6.168;2023-05-07T03:00:18;27.93;;;25.03;;
55720;SDS011;41626;53.098;6.168;2023-05-07T03:02:44;28.40;;;25.40;;
55720;SDS011;41626;53.098;6.168;2023-05-07T03:05:10;29.85;;;26.75;;
55720;SDS011;41626;53.098;6.168;2023-05-07T03:07:37;28.80;;;25.85;;
55720;SDS011;41626;53.098;6.168;2023-05-07T03:10:04;29.85;;;26.75;;
55720;SDS011;41626;53.098;6.168;2023-05-07T03:12:30;29.30;;;26.10;;
55720;SDS011;41626;53.098;6.168;2023-05-07T03:14:56;29.05;;;26.05;;
55720;SDS011;41626;53.098;6.168;2023-05-07T03:17:22;28.58;;;25.70;;
55720;SDS011;41626;53.098;6.168;2023-05-07T03:19:47;29.90;;;26.87;;
55720;SDS011;41626;53.098;6.168;2023-05-07T03:22:13;28.87;;;25.87;;
55720;SDS011;41626;53.098;6.168;2023-05-07T03:24:39;30.63;;;27.63;;
55720;SDS011;41626;53.098;6.168;2023-05-07T03:27:05;29.90;;;26.73;;
55720;SDS011;41626;53.098;6.168;2023-05-07T03:29:31;29.55;;;26.45;;
55720;SDS011;41626;53.098;6.168;2023-05-07T03:31:56;31.73;;;28.43;;
55720;SDS011;41626;53.098;6.168;2023-05-07T03:34:22;31.63;;;28.07;;
55720;SDS011;41626;53.098;6.168;2023-05-07T03:36:48;29.85;;;26.42;;
55720;SDS011;41626;53.098;6.168;2023-05-07T03:39:14;32.15;;;28.85;;
55720;SDS011;41626;53.098;6.168;2023-05-07T03:41:40;35.88;;;28.77;;
55720;SDS011;41626;53.098;6.168;2023-05-07T03:44:06;31.00;;;27.73;;
55720;SDS011;41626;53.098;6.168;2023-05-07T03:46:32;31.23;;;27.77;;
55720;SDS011;41626;53.098;6.168;2023-05-07T03:48:58;31.70;;;28.40;;
55720;SDS011;41626;53.098;6.168;2023-05-07T03:51:24;33.38;;;29.88;;
55720;SDS011;41626;53.098;6.168;2023-05-07T03:53:50;33.90;;;30.25;;
55720;SDS011;41626;53.098;6.168;2023-05-07T03:56:18;32.28;;;28.85;;
55720;SDS011;41626;53.098;6.168;2023-05-07T03:58:44;33.88;;;30.27;;
55720;SDS011;41626;53.098;6.168;2023-05-07T04:01:10;34.25;;;30.58;;
55720;SDS011;41626;53.098;6.168;2023-05-07T04:03:36;35.13;;;31.48;;
55720;SDS011;41626;53.098;6.168;2023-05-07T04:06:02;36.03;;;31.80;;
55720;SDS011;41626;53.098;6.168;2023-05-07T04:08:27;37.42;;;33.53;;
55720;SDS011;41626;53.098;6.168;2023-05-07T04:10:56;38.58;;;34.45;;
55720;SDS011;41626;53.098;6.168;2023-05-07T04:13:23;40.60;;;32.55;;
55720;SDS011;41626;53.098;6.168;2023-05-07T04:15:49;38.10;;;33.83;;
55720;SDS011;41626;53.098;6.168;2023-05-07T04:18:16;38.92;;;34.00;;
55720;SDS011;41626;53.098;6.168;2023-05-07T04:20:41;39.15;;;33.53;;
55720;SDS011;41626;53.098;6.168;2023-05-07T04:23:07;38.65;;;33.70;;
55720;SDS011;41626;53.098;6.168;2023-05-07T04:25:33;42.03;;;35.28;;
55720;SDS011;41626;53.098;6.168;2023-05-07T04:27:59;40.60;;;34.63;;
55720;SDS011;41626;53.098;6.168;2023-05-07T04:30:25;37.45;;;32.78;;
55720;SDS011;41626;53.098;6.168;2023-05-07T04:32:51;39.00;;;33.10;;
55720;SDS011;41626;53.098;6.168;2023-05-07T04:35:18;43.22;;;35.22;;
55720;SDS011;41626;53.098;6.168;2023-05-07T04:37:44;41.40;;;36.20;;
55720;SDS011;41626;53.098;6.168;2023-05-07T04:40:10;41.40;;;34.97;;
55720;SDS011;41626;53.098;6.168;2023-05-07T04:42:36;41.17;;;35.13;;
55720;SDS011;41626;53.098;6.168;2023-05-07T04:45:02;40.65;;;34.40;;
55720;SDS011;41626;53.098;6.168;2023-05-07T04:47:28;41.53;;;34.80;;
55720;SDS011;41626;53.098;6.168;2023-05-07T04:49:53;39.63;;;34.33;;
55720;SDS011;41626;53.098;6.168;2023-05-07T04:52:19;40.20;;;35.78;;
55720;SDS011;41626;53.098;6.168;2023-05-07T04:54:46;45.25;;;36.75;;
55720;SDS011;41626;53.098;6.168;2023-05-07T04:57:11;44.80;;;36.65;;
55720;SDS011;41626;53.098;6.168;2023-05-07T04:59:40;41.20;;;35.83;;
55720;SDS011;41626;53.098;6.168;2023-05-07T05:02:06;44.90;;;37.27;;
55720;SDS011;41626;53.098;6.168;2023-05-07T05:04:31;40.07;;;35.37;;
55720;SDS011;41626;53.098;6.168;2023-05-07T05:06:57;40.73;;;35.57;;
55720;SDS011;41626;53.098;6.168;2023-05-07T05:09:23;46.87;;;35.90;;
55720;SDS011;41626;53.098;6.168;2023-05-07T05:11:49;41.87;;;36.50;;
55720;SDS011;41626;53.098;6.168;2023-05-07T05:14:14;41.73;;;37.23;;
55720;SDS011;41626;53.098;6.168;2023-05-07T05:16:40;41.63;;;36.67;;
55720;SDS011;41626;53.098;6.168;2023-05-07T05:19:06;41.25;;;34.67;;
55720;SDS011;41626;53.098;6.168;2023-05-07T05:21:31;41.20;;;34.50;;
55720;SDS011;41626;53.098;6.168;2023-05-07T05:23:57;41.60;;;34.90;;
55720;SDS011;41626;53.098;6.168;2023-05-07T05:26:23;39.95;;;33.50;;
55720;SDS011;41626;53.098;6.168;2023-05-07T05:28:49;40.30;;;35.55;;
55720;SDS011;41626;53.098;6.168;2023-05-07T05:31:15;37.40;;;32.33;;
55720;SDS011;41626;53.098;6.168;2023-05-07T05:33:41;37.72;;;33.33;;
55720;SDS011;41626;53.098;6.168;2023-05-07T05:36:08;37.27;;;32.93;;
55720;SDS011;41626;53.098;6.168;2023-05-07T05:38:34;37.38;;;33.03;;
55720;SDS011;41626;53.098;6.168;2023-05-07T05:41:00;40.30;;;33.55;;
55720;SDS011;41626;53.098;6.168;2023-05-07T05:43:26;36.63;;;31.80;;
55720;SDS011;41626;53.098;6.168;2023-05-07T05:45:51;35.80;;;31.70;;
55720;SDS011;41626;53.098;6.168;2023-05-07T05:48:17;39.88;;;32.63;;
55720;SDS011;41626;53.098;6.168;2023-05-07T05:50:43;34.23;;;30.37;;
55720;SDS011;41626;53.098;6.168;2023-05-07T05:53:08;34.47;;;30.67;;
55720;SDS011;41626;53.098;6.168;2023-05-07T05:55:34;37.20;;;30.77;;
55720;SDS011;41626;53.098;6.168;2023-05-07T05:58:00;33.70;;;30.25;;
55720;SDS011;41626;53.098;6.168;2023-05-07T06:00:26;32.92;;;29.45;;
55720;SDS011;41626;53.098;6.168;2023-05-07T06:02:52;36.08;;;30.33;;
55720;SDS011;41626;53.098;6.168;2023-05-07T06:05:18;34.15;;;30.27;;
55720;SDS011;41626;53.098;6.168;2023-05-07T06:07:44;34.13;;;29.55;;
55720;SDS011;41626;53.098;6.168;2023-05-07T06:10:09;31.55;;;28.33;;
55720;SDS011;41626;53.098;6.168;2023-05-07T06:12:35;32.60;;;28.87;;
55720;SDS011;41626;53.098;6.168;2023-05-07T06:15:01;34.00;;;29.07;;
55720;SDS011;41626;53.098;6.168;2023-05-07T06:17:26;31.90;;;28.60;;
55720;SDS011;41626;53.098;6.168;2023-05-07T06:19:52;31.90;;;28.45;;
55720;SDS011;41626;53.098;6.168;2023-05-07T06:22:18;30.98;;;27.67;;
55720;SDS011;41626;53.098;6.168;2023-05-07T06:24:43;31.75;;;28.35;;
55720;SDS011;41626;53.098;6.168;2023-05-07T06:27:09;31.35;;;27.77;;
55720;SDS011;41626;53.098;6.168;2023-05-07T06:29:35;30.40;;;27.15;;
55720;SDS011;41626;53.098;6.168;2023-05-07T06:32:10;30.30;;;27.00;;
55720;SDS011;41626;53.098;6.168;2023-05-07T06:34:38;31.30;;;27.95;;
55720;SDS011;41626;53.098;6.168;2023-05-07T06:37:04;30.30;;;27.02;;
55720;SDS011;41626;53.098;6.168;2023-05-07T06:39:30;27.15;;;24.25;;
55720;SDS011;41626;53.098;6.168;2023-05-07T06:41:56;29.27;;;26.30;;
55720;SDS011;41626;53.098;6.168;2023-05-07T06:44:22;28.52;;;25.65;;
55720;SDS011;41626;53.098;6.168;2023-05-07T06:46:47;26.63;;;24.00;;
55720;SDS011;41626;53.098;6.168;2023-05-07T06:49:13;27.53;;;24.80;;
55720;SDS011;41626;53.098;6.168;2023-05-07T06:51:39;29.07;;;25.90;;
55720;SDS011;41626;53.098;6.168;2023-05-07T06:54:08;27.40;;;24.70;;
55720;SDS011;41626;53.098;6.168;2023-05-07T06:56:33;28.37;;;25.53;;
55720;SDS011;41626;53.098;6.168;2023-05-07T06:59:02;27.00;;;24.40;;
55720;SDS011;41626;53.098;6.168;2023-05-07T07:01:28;28.20;;;25.13;;
55720;SDS011;41626;53.098;6.168;2023-05-07T07:03:54;27.57;;;24.77;;
55720;SDS011;41626;53.098;6.168;2023-05-07T07:06:20;26.67;;;24.07;;
55720;SDS011;41626;53.098;6.168;2023-05-07T07:08:45;26.37;;;23.67;;
55720;SDS011;41626;53.098;6.168;2023-05-07T07:11:11;25.67;;;23.13;;
55720;SDS011;41626;53.098;6.168;2023-05-07T07:13:37;25.67;;;23.20;;
55720;SDS011;41626;53.098;6.168;2023-05-07T07:16:03;26.33;;;23.77;;
55720;SDS011;41626;53.098;6.168;2023-05-07T07:18:29;25.13;;;22.63;;
55720;SDS011;41626;53.098;6.168;2023-05-07T07:20:55;27.37;;;24.77;;
55720;SDS011;41626;53.098;6.168;2023-05-07T07:23:20;25.47;;;22.77;;
55720;SDS011;41626;53.098;6.168;2023-05-07T07:25:46;26.05;;;23.45;;
55720;SDS011;41626;53.098;6.168;2023-05-07T07:28:12;25.33;;;22.88;;
55720;SDS011;41626;53.098;6.168;2023-05-07T07:30:38;26.55;;;23.55;;
55720;SDS011;41626;53.098;6.168;2023-05-07T07:33:04;25.00;;;22.48;;
55720;SDS011;41626;53.098;6.168;2023-05-07T07:35:30;25.73;;;23.00;;
55720;SDS011;41626;53.098;6.168;2023-05-07T07:37:56;26.08;;;23.33;;
55720;SDS011;41626;53.098;6.168;2023-05-07T07:40:22;24.75;;;22.23;;
55720;SDS011;41626;53.098;6.168;2023-05-07T07:42:48;25.33;;;22.63;;
55720;SDS011;41626;53.098;6.168;2023-05-07T07:45:14;25.42;;;22.83;;
55720;SDS011;41626;53.098;6.168;2023-05-07T07:47:40;26.90;;;24.27;;
55720;SDS011;41626;53.098;6.168;2023-05-07T07:50:06;24.93;;;22.47;;
55720;SDS011;41626;53.098;6.168;2023-05-07T07:52:32;26.02;;;23.33;;
55720;SDS011;41626;53.098;6.168;2023-05-07T07:54:58;25.48;;;22.77;;
55720;SDS011;41626;53.098;6.168;2023-05-07T07:57:24;26.60;;;24.00;;
55720;SDS011;41626;53.098;6.168;2023-05-07T07:59:50;26.33;;;23.75;;
55720;SDS011;41626;53.098;6.168;2023-05-07T08:02:16;25.60;;;22.90;;
55720;SDS011;41626;53.098;6.168;2023-05-07T08:04:42;25.90;;;23.42;;
55720;SDS011;41626;53.098;6.168;2023-05-07T08:07:11;26.42;;;23.85;;
55720;SDS011;41626;53.098;6.168;2023-05-07T08:09:37;24.83;;;22.55;;
55720;SDS011;41626;53.098;6.168;2023-05-07T08:12:04;26.07;;;23.30;;
55720;SDS011;41626;53.098;6.168;2023-05-07T08:14:33;26.23;;;23.65;;
55720;SDS011;41626;53.098;6.168;2023-05-07T08:16:59;23.95;;;21.63;;
55720;SDS011;41626;53.098;6.168;2023-05-07T08:19:25;23.83;;;21.38;;
55720;SDS011;41626;53.098;6.168;2023-05-07T08:21:51;26.13;;;23.35;;
55720;SDS011;41626;53.098;6.168;2023-05-07T08:24:17;25.27;;;22.97;;
55720;SDS011;41626;53.098;6.168;2023-05-07T08:26:43;26.05;;;23.33;;
55720;SDS011;41626;53.098;6.168;2023-05-07T08:29:10;25.08;;;22.65;;
55720;SDS011;41626;53.098;6.168;2023-05-07T08:31:36;26.02;;;23.38;;
55720;SDS011;41626;53.098;6.168;2023-05-07T08:34:01;24.80;;;22.25;;
55720;SDS011;41626;53.098;6.168;2023-05-07T08:36:28;26.17;;;23.55;;
55720;SDS011;41626;53.098;6.168;2023-05-07T08:38:54;26.43;;;23.53;;
55720;SDS011;41626;53.098;6.168;2023-05-07T08:41:20;25.70;;;23.00;;
55720;SDS011;41626;53.098;6.168;2023-05-07T08:43:49;26.75;;;24.15;;
55720;SDS011;41626;53.098;6.168;2023-05-07T08:46:25;26.02;;;23.35;;
55720;SDS011;41626;53.098;6.168;2023-05-07T08:48:55;26.17;;;23.55;;
55720;SDS011;41626;53.098;6.168;2023-05-07T08:51:21;25.77;;;23.27;;
55720;SDS011;41626;53.098;6.168;2023-05-07T08:53:47;26.10;;;23.43;;
55720;SDS011;41626;53.098;6.168;2023-05-07T08:56:15;25.90;;;23.40;;
55720;SDS011;41626;53.098;6.168;2023-05-07T08:58:42;26.60;;;23.88;;
55720;SDS011;41626;53.098;6.168;2023-05-07T09:01:09;26.70;;;23.98;;
55720;SDS011;41626;53.098;6.168;2023-05-07T09:03:38;25.67;;;23.08;;
55720;SDS011;41626;53.098;6.168;2023-05-07T09:06:04;24.33;;;22.08;;
55720;SDS011;41626;53.098;6.168;2023-05-07T09:08:32;25.83;;;23.30;;
55720;SDS011;41626;53.098;6.168;2023-05-07T09:10:58;26.42;;;23.67;;
55720;SDS011;41626;53.098;6.168;2023-05-07T09:13:24;26.30;;;23.90;;
55720;SDS011;41626;53.098;6.168;2023-05-07T09:15:50;25.83;;;23.33;;
55720;SDS011;41626;53.098;6.168;2023-05-07T09:18:15;28.63;;;25.63;;
55720;SDS011;41626;53.098;6.168;2023-05-07T09:20:41;25.97;;;23.47;;
55720;SDS011;41626;53.098;6.168;2023-05-07T09:23:07;27.52;;;24.98;;
55720;SDS011;41626;53.098;6.168;2023-05-07T09:25:34;26.90;;;24.30;;
55720;SDS011;41626;53.098;6.168;2023-05-07T09:28:00;30.95;;;24.95;;
55720;SDS011;41626;53.098;6.168;2023-05-07T09:30:28;27.02;;;24.55;;
55720;SDS011;41626;53.098;6.168;2023-05-07T09:32:55;25.77;;;23.17;;
55720;SDS011;41626;53.098;6.168;2023-05-07T09:35:22;26.60;;;24.00;;
55720;SDS011;41626;53.098;6.168;2023-05-07T09:37:51;26.83;;;24.25;;
55720;SDS011;41626;53.098;6.168;2023-05-07T09:40:22;26.10;;;23.45;;
55720;SDS011;41626;53.098;6.168;2023-05-07T09:42:52;25.48;;;22.98;;
55720;SDS011;41626;53.098;6.168;2023-05-07T09:45:28;25.83;;;23.17;;
55720;SDS011;41626;53.098;6.168;2023-05-07T09:47:55;25.95;;;23.30;;
55720;SDS011;41626;53.098;6.168;2023-05-07T09:50:29;25.98;;;23.30;;
55720;SDS011;41626;53.098;6.168;2023-05-07T09:52:57;24.90;;;22.60;;
55720;SDS011;41626;53.098;6.168;2023-05-07T09:55:23;25.35;;;22.80;;
55720;SDS011;41626;53.098;6.168;2023-05-07T09:57:50;25.92;;;23.33;;
55720;SDS011;41626;53.098;6.168;2023-05-07T10:00:20;26.63;;;24.08;;
55720;SDS011;41626;53.098;6.168;2023-05-07T10:02:51;27.00;;;24.25;;
55720;SDS011;41626;53.098;6.168;2023-05-07T10:05:17;25.55;;;22.88;;
55720;SDS011;41626;53.098;6.168;2023-05-07T10:07:45;27.45;;;24.55;;
55720;SDS011;41626;53.098;6.168;2023-05-07T10:10:11;26.38;;;23.77;;
55720;SDS011;41626;53.098;6.168;2023-05-07T10:12:38;26.23;;;23.63;;
55720;SDS011;41626;53.098;6.168;2023-05-07T10:15:08;27.13;;;24.73;;
55720;SDS011;41626;53.098;6.168;2023-05-07T10:17:38;27.88;;;24.88;;
55720;SDS011;41626;53.098;6.168;2023-05-07T10:20:04;28.00;;;25.02;;
55720;SDS011;41626;53.098;6.168;2023-05-07T10:22:33;25.50;;;23.02;;
55720;SDS011;41626;53.098;6.168;2023-05-07T10:25:04;26.58;;;23.95;;
55720;SDS011;41626;53.098;6.168;2023-05-07T10:27:34;25.38;;;22.98;;
55720;SDS011;41626;53.098;6.168;2023-05-07T10:30:12;25.55;;;23.05;;
55720;SDS011;41626;53.098;6.168;2023-05-07T10:32:59;24.55;;;22.15;;
55720;SDS011;41626;53.098;6.168;2023-05-07T10:35:31;24.95;;;22.52;;
55720;SDS011;41626;53.098;6.168;2023-05-07T10:38:03;25.30;;;22.80;;
55720;SDS011;41626;53.098;6.168;2023-05-07T10:40:30;25.80;;;23.40;;
55720;SDS011;41626;53.098;6.168;2023-05-07T10:43:00;27.88;;;22.90;;
55720;SDS011;41626;53.098;6.168;2023-05-07T10:45:27;25.23;;;22.52;;
55720;SDS011;41626;53.098;6.168;2023-05-07T10:51:29;24.23;;;21.75;;
55720;SDS011;41626;53.098;6.168;2023-05-07T10:53:47;23.27;;;21.08;;
55720;SDS011;41626;53.098;6.168;2023-05-07T10:58:44;24.42;;;22.02;;
55720;SDS011;41626;53.098;6.168;2023-05-07T11:01:10;22.75;;;20.35;;
55720;SDS011;41626;53.098;6.168;2023-05-07T11:03:37;24.25;;;21.88;;
55720;SDS011;41626;53.098;6.168;2023-05-07T11:06:39;23.90;;;21.40;;
55720;SDS011;41626;53.098;6.168;2023-05-07T11:09:05;23.88;;;21.73;;
55720;SDS011;41626;53.098;6.168;2023-05-07T11:11:47;22.92;;;20.73;;
55720;SDS011;41626;53.098;6.168;2023-05-07T11:17:07;23.48;;;21.13;;
55720;SDS011;41626;53.098;6.168;2023-05-07T11:19:55;21.83;;;19.65;;
55720;SDS011;41626;53.098;6.168;2023-05-07T11:25:18;22.23;;;20.10;;
55720;SDS011;41626;53.098;6.168;2023-05-07T11:27:44;22.77;;;20.67;;
55720;SDS011;41626;53.098;6.168;2023-05-07T11:30:11;22.83;;;20.73;;
55720;SDS011;41626;53.098;6.168;2023-05-07T11:32:43;21.63;;;19.58;;
55720;SDS011;41626;53.098;6.168;2023-05-07T11:35:13;21.13;;;19.13;;
55720;SDS011;41626;53.098;6.168;2023-05-07T11:37:40;20.85;;;19.05;;
55720;SDS011;41626;53.098;6.168;2023-05-07T11:40:07;21.63;;;19.52;;
55720;SDS011;41626;53.098;6.168;2023-05-07T11:42:36;21.33;;;19.38;;
55720;SDS011;41626;53.098;6.168;2023-05-07T11:45:03;20.60;;;18.70;;
55720;SDS011;41626;53.098;6.168;2023-05-07T11:47:30;22.00;;;19.77;;
55720;SDS011;41626;53.098;6.168;2023-05-07T11:49:56;21.27;;;19.17;;
55720;SDS011;41626;53.098;6.168;2023-05-07T11:52:26;22.10;;;20.10;;
55720;SDS011;41626;53.098;6.168;2023-05-07T11:54:53;19.73;;;17.93;;
55720;SDS011;41626;53.098;6.168;2023-05-07T11:57:25;21.17;;;18.98;;
55720;SDS011;41626;53.098;6.168;2023-05-07T11:59:52;19.73;;;17.85;;
55720;SDS011;41626;53.098;6.168;2023-05-07T12:02:19;20.88;;;18.77;;
55720;SDS011;41626;53.098;6.168;2023-05-07T12:04:44;21.17;;;18.88;;
55720;SDS011;41626;53.098;6.168;2023-05-07T12:07:14;20.13;;;18.13;;
55720;SDS011;41626;53.098;6.168;2023-05-07T12:09:40;19.75;;;18.00;;
55720;SDS011;41626;53.098;6.168;2023-05-07T12:12:07;19.73;;;17.92;;
55720;SDS011;41626;53.098;6.168;2023-05-07T12:14:34;19.67;;;17.88;;
55720;SDS011;41626;53.098;6.168;2023-05-07T12:17:06;17.98;;;16.38;;
55720;SDS011;41626;53.098;6.168;2023-05-07T12:19:36;19.52;;;17.75;;
55720;SDS011;41626;53.098;6.168;2023-05-07T12:22:03;18.88;;;17.17;;
55720;SDS011;41626;53.098;6.168;2023-05-07T12:24:42;18.55;;;16.95;;
55720;SDS011;41626;53.098;6.168;2023-05-07T12:27:11;18.05;;;16.25;;
55720;SDS011;41626;53.098;6.168;2023-05-07T12:29:38;18.58;;;16.88;;
55720;SDS011;41626;53.098;6.168;2023-05-07T12:32:06;17.35;;;15.85;;
55720;SDS011;41626;53.098;6.168;2023-05-07T12:34:32;18.55;;;16.65;;
55720;SDS011;41626;53.098;6.168;2023-05-07T12:36:57;19.10;;;17.42;;
55720;SDS011;41626;53.098;6.168;2023-05-07T12:39:28;19.85;;;17.95;;
55720;SDS011;41626;53.098;6.168;2023-05-07T12:41:54;19.13;;;17.43;;
55720;SDS011;41626;53.098;6.168;2023-05-07T12:44:30;18.40;;;16.67;;
55720;SDS011;41626;53.098;6.168;2023-05-07T12:46:57;20.73;;;17.48;;
55720;SDS011;41626;53.098;6.168;2023-05-07T12:49:26;18.77;;;16.92;;
55720;SDS011;41626;53.098;6.168;2023-05-07T12:51:52;18.13;;;16.42;;
55720;SDS011;41626;53.098;6.168;2023-05-07T12:54:31;16.57;;;14.63;;
55720;SDS011;41626;53.098;6.168;2023-05-07T12:57:02;18.25;;;16.55;;
55720;SDS011;41626;53.098;6.168;2023-05-07T12:59:33;17.92;;;16.23;;
55720;SDS011;41626;53.098;6.168;2023-05-07T13:01:59;18.52;;;16.35;;
55720;SDS011;41626;53.098;6.168;2023-05-07T13:04:24;18.47;;;16.87;;
55720;SDS011;41626;53.098;6.168;2023-05-07T13:06:51;17.92;;;16.23;;
55720;SDS011;41626;53.098;6.168;2023-05-07T13:09:16;18.13;;;16.43;;
55720;SDS011;41626;53.098;6.168;2023-05-07T13:11:42;18.33;;;16.63;;
55720;SDS011;41626;53.098;6.168;2023-05-07T13:14:07;19.35;;;17.38;;
55720;SDS011;41626;53.098;6.168;2023-05-07T13:16:33;18.70;;;17.00;;
55720;SDS011;41626;53.098;6.168;2023-05-07T13:18:59;18.53;;;16.93;;
55720;SDS011;41626;53.098;6.168;2023-05-07T13:21:24;18.40;;;16.65;;
55720;SDS011;41626;53.098;6.168;2023-05-07T13:23:51;18.33;;;16.63;;
55720;SDS011;41626;53.098;6.168;2023-05-07T13:26:17;19.02;;;17.42;;
55720;SDS011;41626;53.098;6.168;2023-05-07T13:28:43;16.65;;;15.15;;
55720;SDS011;41626;53.098;6.168;2023-05-07T13:31:09;16.40;;;14.80;;
55720;SDS011;41626;53.098;6.168;2023-05-07T13:33:35;17.37;;;15.67;;
55720;SDS011;41626;53.098;6.168;2023-05-07T13:36:00;18.73;;;17.08;;
55720;SDS011;41626;53.098;6.168;2023-05-07T13:38:29;19.13;;;17.30;;
55720;SDS011;41626;53.098;6.168;2023-05-07T13:40:55;17.48;;;15.93;;
55720;SDS011;41626;53.098;6.168;2023-05-07T13:43:20;18.55;;;16.75;;
55720;SDS011;41626;53.098;6.168;2023-05-07T13:45:46;18.83;;;17.07;;
55720;SDS011;41626;53.098;6.168;2023-05-07T13:48:11;17.63;;;15.93;;
55720;SDS011;41626;53.098;6.168;2023-05-07T13:50:37;17.27;;;15.77;;
55720;SDS011;41626;53.098;6.168;2023-05-07T13:53:03;17.43;;;15.77;;
55720;SDS011;41626;53.098;6.168;2023-05-07T13:55:29;18.27;;;15.30;;
55720;SDS011;41626;53.098;6.168;2023-05-07T13:57:55;17.80;;;16.17;;
55720;SDS011;41626;53.098;6.168;2023-05-07T14:00:22;17.50;;;15.87;;
55720;SDS011;41626;53.098;6.168;2023-05-07T14:02:48;17.17;;;15.48;;
55720;SDS011;41626;53.098;6.168;2023-05-07T14:05:14;18.50;;;16.90;;
55720;SDS011;41626;53.098;6.168;2023-05-07T14:07:40;18.90;;;17.20;;
55720;SDS011;41626;53.098;6.168;2023-05-07T14:10:05;18.40;;;16.67;;
55720;SDS011;41626;53.098;6.168;2023-05-07T14:12:32;17.80;;;16.10;;
55720;SDS011;41626;53.098;6.168;2023-05-07T14:14:58;16.35;;;14.95;;
55720;SDS011;41626;53.098;6.168;2023-05-07T14:17:24;18.30;;;16.70;;
55720;SDS011;41626;53.098;6.168;2023-05-07T14:19:52;18.58;;;16.55;;
55720;SDS011;41626;53.098;6.168;2023-05-07T14:22:22;18.10;;;16.42;;
55720;SDS011;41626;53.098;6.168;2023-05-07T14:24:48;18.92;;;17.13;;
55720;SDS011;41626;53.098;6.168;2023-05-07T14:27:14;17.67;;;16.08;;
55720;SDS011;41626;53.098;6.168;2023-05-07T14:29:40;16.35;;;14.88;;
55720;SDS011;41626;53.098;6.168;2023-05-07T14:32:06;17.75;;;16.15;;
55720;SDS011;41626;53.098;6.168;2023-05-07T14:34:31;17.77;;;16.17;;